Time;durP1;ratioP1;P1;durP2;ratioP2;P2;SDS_P1;SDS_P2;PMS_P1;PMS_P2;Temp;Humidity;BMP_temperature;BMP_pressure;BME280_temperature;BME280_humidity;BME280_pressure;Samples;Min_cycle;Max_cycle;Signal;HPM_P1;HPM_P2
2021/09/04 00:01:15;;;;;;;18.45;11.75;;;13.30;78.90;;;;;;5034369;28;20468;-67
2021/09/04 00:03:40;;;;;;;23.05;13.35;;;13.30;79.00;;;;;;5034408;28;20037;-66
2021/09/04 00:06:06;;;;;;;26.13;14.13;;;13.20;79.10;;;;;;5034329;28;20511;-67
2021/09/04 00:08:32;;;;;;;25.40;14.43;;;13.20;79.20;;;;;;5034586;28;20037;-67
2021/09/04 00:10:57;;;;;;;29.23;15.45;;;13.20;79.40;;;;;;5034206;28;20371;-67
2021/09/04 00:13:23;;;;;;;30.63;15.38;;;13.20;79.50;;;;;;5032816;28;20118;-67
2021/09/04 00:15:49;;;;;;;28.45;15.63;;;13.20;79.70;;;;;;5032834;28;20025;-67
2021/09/04 00:18:14;;;;;;;29.20;15.57;;;13.10;79.70;;;;;;5032920;28;20032;-67
2021/09/04 00:20:40;;;;;;;26.88;14.55;;;13.10;79.80;;;;;;5033943;28;20053;-67
2021/09/04 00:23:06;;;;;;;29.40;14.38;;;13.10;80.00;;;;;;5032707;28;20073;-67
2021/09/04 00:25:32;;;;;;;32.70;15.38;;;13.10;80.00;;;;;;5034029;28;20052;-67
2021/09/04 00:27:57;;;;;;;31.73;15.90;;;13.10;80.00;;;;;;5034168;28;20021;-67
2021/09/04 00:30:23;;;;;;;45.17;19.48;;;13.20;80.10;;;;;;5033106;28;20029;-67
2021/09/04 00:32:49;;;;;;;45.03;21.58;;;13.20;80.00;;;;;;5034141;28;20464;-66
2021/09/04 00:35:14;;;;;;;45.47;22.40;;;13.30;80.00;;;;;;5033717;28;20100;-67
2021/09/04 00:37:40;;;;;;;53.10;25.00;;;13.30;79.90;;;;;;5034444;28;20025;-66
2021/09/04 00:40:07;;;;;;;58.97;27.27;;;13.30;79.90;;;;;;5033512;28;20037;-67
2021/09/04 00:42:33;;;;;;;58.03;26.00;;;13.30;79.80;;;;;;5032830;28;20522;-67
2021/09/04 00:44:59;;;;;;;67.45;28.08;;;13.30;79.90;;;;;;5033949;28;20030;-66
2021/09/04 00:47:25;;;;;;;59.80;27.40;;;13.30;79.90;;;;;;5032485;28;20476;-66
2021/09/04 00:49:50;;;;;;;57.42;25.70;;;13.30;79.80;;;;;;5031719;28;20487;-67
2021/09/04 00:52:18;;;;;;;47.20;22.30;;;13.30;79.80;;;;;;5032300;28;20040;-67
2021/09/04 00:54:44;;;;;;;42.95;20.13;;;13.30;79.80;;;;;;5033561;28;20033;-66
2021/09/04 00:57:09;;;;;;;34.28;16.50;;;13.40;79.80;;;;;;5032398;28;20383;-67
2021/09/04 00:59:35;;;;;;;30.55;15.70;;;13.40;79.70;;;;;;5033502;28;20056;-66
2021/09/04 01:02:01;;;;;;;26.83;12.75;;;13.50;80.30;;;;;;5033684;28;20037;-67
2021/09/04 01:04:27;;;;;;;16.92;10.25;;;13.50;79.60;;;;;;5031247;28;20065;-67
2021/09/04 01:06:53;;;;;;;20.73;10.10;;;13.50;79.60;;;;;;5033076;28;20037;-67
2021/09/04 01:09:19;;;;;;;14.52;9.55;;;13.60;79.60;;;;;;5032295;28;20055;-69
2021/09/04 01:11:45;;;;;;;14.02;10.88;;;13.70;79.30;;;;;;5032832;28;20030;-67
2021/09/04 01:14:11;;;;;;;16.05;10.88;;;13.80;78.90;;;;;;5033598;28;20132;-67
2021/09/04 01:16:39;;;;;;;14.73;11.02;;;13.80;78.60;;;;;;5031915;28;20029;-67
2021/09/04 01:19:06;;;;;;;22.20;12.43;;;13.80;78.50;;;;;;5033397;28;20484;-67
2021/09/04 01:21:35;;;;;;;17.17;10.30;;;13.80;78.30;;;;;;5033174;28;20419;-67
2021/09/04 01:24:06;;;;;;;23.85;12.20;;;13.80;78.50;;;;;;5033412;28;20077;-67
2021/09/04 01:26:33;;;;;;;19.55;11.50;;;13.70;78.70;;;;;;5032095;28;20061;-67
2021/09/04 01:28:59;;;;;;;20.98;12.15;;;13.70;78.90;;;;;;5031925;28;20056;-68
2021/09/04 01:31:26;;;;;;;23.20;13.10;;;13.60;78.90;;;;;;5033692;28;20049;-65
2021/09/04 01:33:52;;;;;;;21.73;13.48;;;13.60;79.30;;;;;;5033297;28;20375;-66
2021/09/04 01:36:29;;;;;;;23.50;13.40;;;13.50;79.50;;;;;;5051953;28;20029;-66
2021/09/04 01:38:55;;;;;;;19.17;12.50;;;13.50;79.90;;;;;;5051845;28;20060;-67
2021/09/04 01:41:20;;;;;;;16.23;11.30;;;13.40;80.10;;;;;;5053199;28;20064;-66
2021/09/04 01:43:46;;;;;;;22.27;11.02;;;13.30;80.30;;;;;;5052975;28;20037;-67
2021/09/04 01:46:12;;;;;;;15.93;10.02;;;13.30;80.50;;;;;;5053081;28;20085;-66
2021/09/04 01:48:37;;;;;;;13.27;8.32;;;13.20;80.90;;;;;;5051614;28;20079;-67
2021/09/04 01:51:03;;;;;;;13.45;8.55;;;13.10;81.10;;;;;;5052231;28;20482;-67
2021/09/04 01:53:29;;;;;;;19.13;10.98;;;13.10;81.20;;;;;;5053154;28;20501;-67
2021/09/04 01:55:54;;;;;;;15.73;10.60;;;13.00;81.40;;;;;;5051661;28;20025;-67
2021/09/04 01:58:20;;;;;;;17.05;10.75;;;12.90;81.60;;;;;;5052877;28;20167;-66
2021/09/04 02:00:46;;;;;;;18.00;11.35;;;12.80;82.00;;;;;;5052752;28;20475;-67
2021/09/04 02:03:11;;;;;;;25.92;13.70;;;12.80;82.30;;;;;;5054583;28;20040;-67
2021/09/04 02:05:37;;;;;;;28.20;13.85;;;12.80;82.60;;;;;;5043547;28;20059;-67
2021/09/04 02:08:03;;;;;;;27.67;15.52;;;12.70;82.70;;;;;;5035332;28;20021;-67
2021/09/04 02:10:29;;;;;;;31.05;16.13;;;12.70;82.90;;;;;;5036750;28;20108;-66
2021/09/04 02:12:54;;;;;;;34.20;17.35;;;12.60;83.10;;;;;;5036574;28;20083;-67
2021/09/04 02:15:20;;;;;;;35.33;17.40;;;12.70;83.30;;;;;;5034975;28;20025;-67
2021/09/04 02:17:46;;;;;;;31.73;17.60;;;12.70;83.40;;;;;;5035073;28;20040;-68
2021/09/04 02:20:12;;;;;;;30.40;17.00;;;12.70;83.40;;;;;;5034803;28;20025;-67
2021/09/04 02:22:38;;;;;;;31.95;18.77;;;12.70;84.20;;;;;;5035543;28;20056;-67
2021/09/04 02:25:05;;;;;;;32.58;17.45;;;12.70;83.60;;;;;;5036674;28;20491;-67
2021/09/04 02:27:32;;;;;;;30.15;19.27;;;12.70;83.70;;;;;;5036035;28;20021;-66
2021/09/04 02:29:58;;;;;;;26.70;17.92;;;12.60;83.70;;;;;;5035974;28;20025;-66
2021/09/04 02:32:23;;;;;;;26.98;16.55;;;12.60;84.60;;;;;;5036315;28;20083;-67
2021/09/04 02:34:49;;;;;;;30.27;17.83;;;12.60;84.20;;;;;;5035495;28;20052;-67
2021/09/04 02:37:15;;;;;;;28.88;18.00;;;12.60;84.30;;;;;;5035966;28;20080;-67
2021/09/04 02:39:42;;;;;;;26.52;17.52;;;12.60;84.60;;;;;;5036005;28;20025;-66
2021/09/04 02:42:08;;;;;;;25.67;16.92;;;12.70;84.40;;;;;;5034500;28;20022;-66
2021/09/04 02:44:34;;;;;;;25.63;16.58;;;12.70;84.20;;;;;;5035948;28;20029;-66
2021/09/04 02:47:00;;;;;;;24.30;14.52;;;12.70;84.00;;;;;;5034285;28;20396;-67
2021/09/04 02:49:25;;;;;;;22.42;13.77;;;12.70;83.90;;;;;;5035628;28;20029;-67
2021/09/04 02:51:51;;;;;;;18.80;11.88;;;12.80;84.10;;;;;;5035791;28;20025;-67
2021/09/04 02:54:17;;;;;;;22.00;12.48;;;12.70;84.20;;;;;;5034409;28;20545;-67
2021/09/04 02:56:42;;;;;;;24.80;15.45;;;12.70;84.20;;;;;;5034267;28;20030;-65
2021/09/04 02:59:08;;;;;;;20.58;13.43;;;12.70;84.40;;;;;;5035551;28;20026;-67
2021/09/04 03:01:34;;;;;;;17.83;11.48;;;12.70;84.50;;;;;;5034243;28;20092;-67
2021/09/04 03:03:59;;;;;;;18.17;12.13;;;12.80;84.70;;;;;;5034802;28;20108;-72
2021/09/04 03:06:25;;;;;;;20.45;14.10;;;12.80;84.70;;;;;;5034960;28;20119;-67
2021/09/04 03:08:53;;;;;;;20.48;15.57;;;12.90;84.50;;;;;;5033997;28;20029;-66
2021/09/04 03:11:19;;;;;;;22.27;18.50;;;13.00;83.90;;;;;;5035474;28;20021;-67
2021/09/04 03:13:45;;;;;;;28.98;19.75;;;13.10;83.50;;;;;;5033918;28;20034;-66
2021/09/04 03:16:11;;;;;;;25.05;19.48;;;13.10;83.30;;;;;;5035242;28;20029;-67
2021/09/04 03:18:37;;;;;;;27.20;21.33;;;13.10;83.10;;;;;;5035108;28;20029;-67
2021/09/04 03:21:03;;;;;;;25.05;18.70;;;13.10;83.00;;;;;;5035179;28;20426;-67
2021/09/04 03:23:29;;;;;;;24.65;20.05;;;13.20;83.00;;;;;;5035178;28;20029;-66
2021/09/04 03:25:54;;;;;;;22.85;17.00;;;13.20;82.90;;;;;;5035159;28;20034;-66
2021/09/04 03:28:20;;;;;;;25.70;17.73;;;13.20;82.80;;;;;;5034921;28;20104;-67
2021/09/04 03:30:46;;;;;;;24.15;17.30;;;13.20;82.90;;;;;;5034984;28;20030;-67
2021/09/04 03:33:12;;;;;;;25.80;18.35;;;13.20;83.10;;;;;;5033896;28;20042;-66
2021/09/04 03:35:37;;;;;;;27.60;21.95;;;13.20;82.80;;;;;;5033019;28;20057;-67
2021/09/04 03:38:03;;;;;;;26.08;20.42;;;13.30;82.60;;;;;;5034780;28;20033;-66
2021/09/04 03:40:29;;;;;;;23.13;17.90;;;13.30;82.60;;;;;;5034731;28;20036;-67
2021/09/04 03:42:54;;;;;;;20.30;15.70;;;13.30;82.50;;;;;;5034715;28;20395;-67
2021/09/04 03:45:20;;;;;;;18.40;14.30;;;13.30;82.30;;;;;;5034717;28;20026;-67
2021/09/04 03:47:46;;;;;;;17.73;11.80;;;13.40;82.30;;;;;;5033389;28;20105;-67
2021/09/04 03:50:12;;;;;;;15.60;10.60;;;13.40;81.90;;;;;;5034598;28;20107;-67
2021/09/04 03:52:38;;;;;;;15.60;8.77;;;13.40;81.80;;;;;;5033132;28;20379;-67
2021/09/04 03:55:04;;;;;;;13.35;9.10;;;13.50;81.50;;;;;;5034360;28;20034;-67
2021/09/04 03:57:30;;;;;;;12.90;8.98;;;13.50;81.50;;;;;;5034336;28;20104;-67
2021/09/04 03:59:56;;;;;;;16.63;9.65;;;13.50;81.30;;;;;;5033105;28;20061;-68
2021/09/04 04:02:21;;;;;;;16.50;10.73;;;13.50;81.30;;;;;;5034186;28;20490;-66
2021/09/04 04:04:47;;;;;;;18.55;12.35;;;13.50;81.40;;;;;;5033353;28;20484;-67
2021/09/04 04:07:13;;;;;;;16.38;12.50;;;13.50;81.40;;;;;;5032810;28;20040;-67
2021/09/04 04:09:39;;;;;;;17.90;12.30;;;13.50;81.50;;;;;;5033237;28;20025;-67
2021/09/04 04:12:05;;;;;;;20.05;12.00;;;13.50;81.50;;;;;;5034188;28;20495;-67
2021/09/04 04:14:30;;;;;;;18.15;11.77;;;13.50;81.70;;;;;;5032473;28;20484;-68
2021/09/04 04:16:56;;;;;;;18.95;11.55;;;13.60;81.70;;;;;;5034299;28;20073;-67
2021/09/04 04:19:22;;;;;;;15.52;9.88;;;13.70;81.90;;;;;;5033139;28;20533;-78
2021/09/04 04:21:48;;;;;;;18.77;10.27;;;14.00;82.20;;;;;;5033539;28;20498;-72
2021/09/04 04:24:13;;;;;;;16.52;10.30;;;14.30;81.50;;;;;;5033906;28;20380;-73
2021/09/04 04:26:39;;;;;;;16.02;8.88;;;14.70;80.30;;;;;;5033818;28;20076;-71
2021/09/04 04:29:05;;;;;;;14.05;8.13;;;14.80;79.10;;;;;;5033581;28;20029;-76
2021/09/04 04:31:30;;;;;;;13.32;8.00;;;14.80;78.60;;;;;;5033833;28;20026;-71
2021/09/04 04:33:56;;;;;;;17.55;8.38;;;14.80;78.40;;;;;;5032515;28;20033;-72
2021/09/04 04:36:22;;;;;;;12.40;7.50;;;14.80;78.60;;;;;;5033770;28;20353;-69
2021/09/04 04:38:47;;;;;;;12.52;7.70;;;14.80;78.80;;;;;;5032377;28;20030;-72
2021/09/04 04:41:13;;;;;;;15.25;7.95;;;14.80;78.70;;;;;;5032451;28;20069;-72
2021/09/04 04:43:39;;;;;;;12.23;7.55;;;15.00;79.40;;;;;;5034011;28;20064;-72
2021/09/04 04:46:04;;;;;;;13.63;7.97;;;15.40;79.30;;;;;;5033965;28;20349;-74
2021/09/04 04:48:30;;;;;;;10.98;6.80;;;15.80;78.60;;;;;;5032639;28;20132;-72
2021/09/04 04:50:56;;;;;;;13.38;7.60;;;16.50;77.60;;;;;;5034094;28;20025;-73
2021/09/04 04:53:21;;;;;;;13.48;7.03;;;17.30;75.70;;;;;;5034018;28;20045;-72
2021/09/04 04:55:47;;;;;;;13.40;6.72;;;18.10;73.30;;;;;;5033800;28;20100;-72
2021/09/04 04:58:13;;;;;;;11.45;6.80;;;18.70;70.80;;;;;;5032143;28;20036;-72
2021/09/04 05:00:39;;;;;;;10.65;6.93;;;19.00;68.60;;;;;;5033285;28;20103;-73
2021/09/04 05:03:05;;;;;;;12.70;7.22;;;19.10;68.00;;;;;;5032216;28;20061;-73
2021/09/04 05:05:31;;;;;;;14.23;7.75;;;19.60;66.60;;;;;;5039067;28;20084;-74
2021/09/04 05:07:57;;;;;;;11.95;8.07;;;19.50;65.30;;;;;;5035691;28;20025;-72
2021/09/04 05:10:23;;;;;;;13.73;7.93;;;19.20;64.90;;;;;;5036006;28;20033;-74
2021/09/04 05:12:49;;;;;;;15.88;8.93;;;18.80;65.50;;;;;;5051761;28;20028;-73
2021/09/04 05:15:14;;;;;;;14.23;8.07;;;18.60;66.00;;;;;;5041466;28;20044;-78
2021/09/04 05:17:40;;;;;;;12.95;8.30;;;18.40;66.40;;;;;;5036168;28;20037;-74
2021/09/04 05:20:06;;;;;;;12.90;8.43;;;18.20;66.90;;;;;;5038672;28;20029;-75
2021/09/04 05:22:32;;;;;;;13.38;8.77;;;18.10;67.20;;;;;;5044309;28;20025;-75
2021/09/04 05:24:58;;;;;;;15.23;9.43;;;18.10;67.40;;;;;;5052708;28;20078;-75
2021/09/04 05:27:24;;;;;;;15.35;8.43;;;18.00;67.60;;;;;;5053069;28;20025;-74
2021/09/04 05:29:49;;;;;;;13.70;8.52;;;17.80;67.80;;;;;;5051890;28;20064;-75
2021/09/04 05:32:22;;;;;;;16.92;8.73;;;17.70;68.30;;;;;;5051941;28;20033;-77
2021/09/04 05:34:49;;;;;;;14.70;8.38;;;17.60;68.80;;;;;;5053342;28;20414;-75
2021/09/04 05:37:15;;;;;;;16.23;8.70;;;17.50;69.40;;;;;;5048494;28;20075;-76
2021/09/04 05:39:41;;;;;;;14.60;8.18;;;17.80;70.60;;;;;;5038541;28;20025;-77
2021/09/04 05:42:07;;;;;;;15.15;7.85;;;18.50;70.00;;;;;;5035439;28;20032;-78
2021/09/04 05:44:33;;;;;;;12.55;7.97;;;19.00;68.40;;;;;;5051102;28;20029;-77
2021/09/04 05:46:59;;;;;;;14.88;8.02;;;19.30;67.10;;;;;;5056677;28;20459;-79
2021/09/04 05:49:24;;;;;;;13.15;7.72;;;19.40;66.10;;;;;;5055468;28;20066;-75
2021/09/04 05:51:50;;;;;;;12.20;7.65;;;19.40;66.10;;;;;;5040299;28;20025;-75
2021/09/04 05:54:16;;;;;;;12.73;7.32;;;19.30;66.30;;;;;;5035183;28;20120;-79
2021/09/04 05:56:42;;;;;;;10.50;6.30;;;19.20;66.50;;;;;;5046953;28;20021;-77
2021/09/04 05:59:08;;;;;;;13.27;6.03;;;19.00;67.00;;;;;;5044960;28;20475;-80
2021/09/04 06:01:34;;;;;;;9.43;5.20;;;18.80;67.50;;;;;;5043095;28;20033;-75
2021/09/04 06:03:59;;;;;;;9.93;5.57;;;18.80;67.80;;;;;;5054910;28;20033;-75
2021/09/04 06:06:25;;;;;;;8.80;5.32;;;18.90;67.60;;;;;;5056693;28;20195;-77
2021/09/04 06:08:51;;;;;;;9.57;5.07;;;18.80;67.60;;;;;;5056446;28;20032;-74
2021/09/04 06:11:16;;;;;;;10.32;4.85;;;18.80;68.20;;;;;;5056222;28;20021;-73
2021/09/04 06:13:42;;;;;;;9.20;4.68;;;18.80;68.50;;;;;;5056166;28;20036;-73
2021/09/04 06:16:08;;;;;;;9.02;4.88;;;18.90;68.50;;;;;;5053747;28;20036;-73
2021/09/04 06:18:33;;;;;;;9.13;5.00;;;18.90;68.40;;;;;;5050619;28;20033;-74
2021/09/04 06:20:59;;;;;;;7.70;4.68;;;19.00;68.20;;;;;;5034071;28;20036;-75
2021/09/04 06:23:25;;;;;;;8.77;4.82;;;19.10;68.10;;;;;;5034734;28;20040;-74
2021/09/04 06:25:50;;;;;;;9.35;5.20;;;19.30;67.80;;;;;;5035703;28;20021;-73
2021/09/04 06:28:16;;;;;;;10.05;4.88;;;19.40;67.30;;;;;;5033755;28;20017;-73
2021/09/04 06:30:42;;;;;;;8.50;5.40;;;19.50;67.00;;;;;;5033813;28;20037;-73
2021/09/04 06:33:07;;;;;;;8.98;5.20;;;19.60;67.00;;;;;;5034075;28;20353;-73
2021/09/04 06:35:33;;;;;;;9.55;5.43;;;19.60;67.40;;;;;;5033947;28;20384;-73
2021/09/04 06:37:58;;;;;;;10.13;5.63;;;19.60;67.20;;;;;;5035315;28;20412;-74
2021/09/04 06:40:24;;;;;;;8.25;5.20;;;19.60;67.20;;;;;;5033874;28;20461;-73
2021/09/04 06:42:50;;;;;;;9.63;5.13;;;19.50;67.20;;;;;;5035888;28;20116;-73
2021/09/04 06:45:15;;;;;;;9.18;5.18;;;19.60;67.40;;;;;;5038275;28;20032;-74
2021/09/04 06:47:41;;;;;;;8.95;5.30;;;19.90;67.10;;;;;;5055660;28;20388;-74
2021/09/04 06:50:07;;;;;;;7.38;4.78;;;20.00;66.80;;;;;;5055974;28;20075;-74
2021/09/04 06:52:33;;;;;;;7.40;4.63;;;19.90;66.90;;;;;;5055358;28;20075;-73
2021/09/04 06:54:58;;;;;;;8.95;5.18;;;19.90;66.60;;;;;;5055227;28;20357;-72
2021/09/04 06:57:24;;;;;;;9.07;5.07;;;19.70;66.60;;;;;;5054682;28;20025;-73
2021/09/04 06:59:50;;;;;;;7.97;4.72;;;19.40;67.30;;;;;;5055464;28;20025;-73
2021/09/04 07:02:15;;;;;;;8.45;4.78;;;19.20;67.70;;;;;;5054114;28;20033;-72
2021/09/04 07:04:41;;;;;;;7.97;5.03;;;19.00;68.10;;;;;;5053858;28;20045;-71
2021/09/04 07:07:07;;;;;;;7.78;4.90;;;18.80;68.80;;;;;;5055213;28;20121;-71
2021/09/04 07:09:33;;;;;;;8.38;5.20;;;18.60;69.20;;;;;;5038532;28;20426;-72
2021/09/04 07:12:00;;;;;;;9.75;5.43;;;18.40;69.70;;;;;;5034203;28;20022;-72
2021/09/04 07:14:26;;;;;;;9.77;5.30;;;18.30;70.50;;;;;;5034957;28;20475;-71
2021/09/04 07:16:51;;;;;;;8.00;5.00;;;18.10;70.90;;;;;;5035423;28;20033;-72
2021/09/04 07:19:17;;;;;;;9.98;5.07;;;18.10;71.10;;;;;;5035320;28;20033;-74
2021/09/04 07:21:44;;;;;;;9.93;5.63;;;18.10;71.30;;;;;;5034211;28;20030;-72
2021/09/04 07:24:10;;;;;;;9.45;5.05;;;18.10;71.40;;;;;;5034822;28;20068;-73
2021/09/04 07:26:35;;;;;;;9.40;5.28;;;18.20;71.90;;;;;;5033860;28;20497;-72
2021/09/04 07:29:01;;;;;;;7.18;4.95;;;18.30;72.00;;;;;;5033650;28;20021;-73
2021/09/04 07:31:27;;;;;;;9.18;4.90;;;18.50;71.70;;;;;;5034823;28;20029;-72
2021/09/04 07:33:52;;;;;;;7.97;3.92;;;18.80;71.40;;;;;;5034915;28;20030;-72
2021/09/04 07:36:18;;;;;;;6.75;3.75;;;19.10;70.00;;;;;;5033371;28;20025;-74
2021/09/04 07:38:44;;;;;;;6.72;3.70;;;19.20;69.00;;;;;;5033607;28;20026;-72
2021/09/04 07:41:09;;;;;;;5.20;3.20;;;19.40;68.70;;;;;;5034948;28;20037;-72
2021/09/04 07:43:36;;;;;;;6.05;2.92;;;20.20;68.50;;;;;;5034613;28;20456;-72
2021/09/04 07:46:01;;;;;;;4.53;2.75;;;21.10;66.60;;;;;;5033331;28;20021;-72
2021/09/04 07:48:27;;;;;;;8.43;2.60;;;21.70;64.50;;;;;;5033313;28;20028;-72
2021/09/04 07:50:54;;;;;;;4.93;2.60;;;22.00;62.60;;;;;;5034340;28;20521;-73
2021/09/04 07:53:20;;;;;;;4.13;2.55;;;22.00;61.10;;;;;;5033199;28;20060;-73
2021/09/04 07:55:46;;;;;;;5.80;3.10;;;21.90;61.00;;;;;;5033279;28;20053;-72
2021/09/04 07:58:11;;;;;;;9.90;3.15;;;21.80;61.20;;;;;;5033392;28;20068;-73
2021/09/04 08:00:37;;;;;;;6.05;3.30;;;21.60;61.30;;;;;;5033907;28;20029;-74
2021/09/04 08:03:03;;;;;;;4.90;2.97;;;21.30;61.40;;;;;;5034272;28;20029;-73
2021/09/04 08:05:29;;;;;;;5.30;2.97;;;21.00;61.60;;;;;;5034477;28;20057;-73
2021/09/04 08:07:54;;;;;;;5.78;2.90;;;20.70;62.10;;;;;;5033707;28;20122;-73
2021/09/04 08:10:20;;;;;;;6.03;3.10;;;20.40;62.70;;;;;;5034293;28;20026;-73
2021/09/04 08:12:46;;;;;;;5.35;2.63;;;20.10;63.40;;;;;;5033071;28;20026;-72
2021/09/04 08:15:11;;;;;;;5.40;2.83;;;19.90;64.10;;;;;;5034031;28;20033;-72
2021/09/04 08:17:37;;;;;;;5.97;3.10;;;19.80;64.40;;;;;;5032949;28;20026;-72
2021/09/04 08:20:04;;;;;;;5.00;2.78;;;19.80;65.00;;;;;;5034194;28;20365;-71
2021/09/04 08:22:30;;;;;;;5.15;2.70;;;19.80;64.70;;;;;;5032374;28;20109;-73
2021/09/04 08:24:56;;;;;;;5.13;2.90;;;19.80;65.00;;;;;;5033182;28;20195;-72
2021/09/04 08:27:22;;;;;;;4.18;2.53;;;19.80;64.90;;;;;;5033836;28;20025;-72
2021/09/04 08:29:47;;;;;;;4.68;2.60;;;19.70;65.10;;;;;;5034146;28;20036;-72
2021/09/04 08:32:13;;;;;;;4.20;2.38;;;19.50;64.90;;;;;;5032629;28;20022;-73
2021/09/04 08:34:39;;;;;;;4.18;2.05;;;19.30;64.80;;;;;;5052111;28;20029;-73
2021/09/04 08:37:06;;;;;;;4.18;2.30;;;19.20;65.40;;;;;;5052201;28;20021;-72
2021/09/04 08:39:32;;;;;;;4.47;2.20;;;19.30;65.80;;;;;;5052269;28;20032;-73
2021/09/04 08:41:57;;;;;;;4.57;1.95;;;19.80;65.50;;;;;;5052300;28;20028;-72
2021/09/04 08:44:23;;;;;;;3.72;2.25;;;20.00;63.70;;;;;;5052244;28;20085;-73
2021/09/04 08:46:50;;;;;;;5.85;2.20;;;20.00;62.50;;;;;;5052227;28;20021;-72
2021/09/04 08:49:18;;;;;;;5.32;2.58;;;19.80;62.10;;;;;;5053798;28;20035;-73
2021/09/04 08:51:44;;;;;;;4.20;1.90;;;19.70;62.50;;;;;;5052165;28;20032;-73
2021/09/04 08:54:10;;;;;;;2.90;1.80;;;19.70;63.10;;;;;;5052206;28;20036;-73
2021/09/04 08:56:36;;;;;;;2.25;1.70;;;19.70;63.00;;;;;;5053757;28;20037;-73
2021/09/04 08:59:02;;;;;;;3.65;1.80;;;19.70;63.50;;;;;;5052118;28;20029;-73
2021/09/04 09:01:28;;;;;;;2.85;1.60;;;19.70;63.40;;;;;;5052156;28;20386;-73
2021/09/04 09:04:01;;;;;;;3.08;1.75;;;19.70;62.80;;;;;;5050992;28;20036;-73
2021/09/04 09:06:28;;;;;;;4.13;1.70;;;19.60;62.70;;;;;;5052223;28;20025;-73
2021/09/04 09:08:55;;;;;;;4.32;1.50;;;19.70;62.70;;;;;;5052719;28;20387;-73
2021/09/04 09:11:21;;;;;;;2.80;1.70;;;20.00;62.50;;;;;;5054106;28;20345;-73
2021/09/04 09:13:49;;;;;;;3.28;1.75;;;20.40;61.00;;;;;;5056136;28;20060;-74
2021/09/04 09:16:16;;;;;;;3.15;1.65;;;20.70;60.20;;;;;;5057021;28;20123;-73
2021/09/04 09:18:49;;;;;;;4.07;1.50;;;21.40;59.40;;;;;;5055642;28;20041;-73
2021/09/04 09:21:15;;;;;;;3.13;1.58;;;22.10;58.00;;;;;;5057518;28;20025;-74
2021/09/04 09:23:41;;;;;;;2.30;1.40;;;23.00;57.10;;;;;;5055875;28;20074;-74
2021/09/04 09:26:11;;;;;;;2.17;1.30;;;23.90;55.20;;;;;;5057206;28;20021;-74
2021/09/04 09:28:39;;;;;;;2.60;1.45;;;24.90;53.50;;;;;;5055971;28;20036;-74
2021/09/04 09:31:05;;;;;;;2.80;1.55;;;25.10;50.90;;;;;;5045433;28;20037;-74
2021/09/04 09:33:32;;;;;;;3.92;1.67;;;24.90;50.00;;;;;;5036536;28;20033;-74
2021/09/04 09:36:00;;;;;;;2.33;1.40;;;24.40;49.70;;;;;;5037072;28;20162;-74
2021/09/04 09:38:31;;;;;;;2.72;1.40;;;23.90;49.90;;;;;;5037343;28;20036;-73
2021/09/04 09:40:58;;;;;;;2.30;1.38;;;23.40;50.60;;;;;;5035767;28;20030;-74
2021/09/04 09:43:32;;;;;;;3.92;1.88;;;23.10;50.90;;;;;;5035632;28;20057;-73
2021/09/04 09:46:00;;;;;;;3.67;1.55;;;23.00;51.50;;;;;;5035767;28;20022;-74
2021/09/04 09:48:31;;;;;;;3.67;2.00;;;23.10;51.50;;;;;;5036941;28;20095;-73
2021/09/04 09:50:59;;;;;;;4.07;1.75;;;23.20;51.70;;;;;;5035713;28;20021;-75
2021/09/04 09:53:26;;;;;;;3.88;1.98;;;23.60;52.10;;;;;;5035312;28;20095;-73
2021/09/04 09:55:54;;;;;;;2.95;1.80;;;24.10;50.90;;;;;;5035115;28;20030;-74
2021/09/04 09:58:22;;;;;;;4.28;1.67;;;24.60;50.50;;;;;;5036628;28;20026;-75
2021/09/04 10:00:50;;;;;;;3.35;1.73;;;24.90;49.10;;;;;;5034563;28;20036;-74
2021/09/04 10:03:18;;;;;;;4.43;1.98;;;24.80;48.80;;;;;;5035546;28;20625;-74
2021/09/04 10:05:45;;;;;;;4.55;1.70;;;24.70;48.60;;;;;;5035506;28;20472;-74
2021/09/04 10:08:15;;;;;;;5.82;1.90;;;25.00;48.70;;;;;;5035193;28;20104;-74
2021/09/04 10:10:40;;;;;;;2.63;1.58;;;25.50;48.60;;;;;;5035373;28;20056;-75
2021/09/04 10:13:06;;;;;;;3.55;1.60;;;26.20;47.80;;;;;;5033962;28;20025;-75
2021/09/04 10:15:36;;;;;;;3.63;1.67;;;26.80;47.00;;;;;;5035260;28;20029;-76
2021/09/04 10:18:05;;;;;;;4.03;1.98;;;27.20;45.20;;;;;;5033351;28;20029;-78
2021/09/04 10:20:31;;;;;;;3.28;1.90;;;27.10;44.40;;;;;;5032020;28;20044;-75
2021/09/04 10:23:14;;;;;;;4.53;1.77;;;26.70;44.50;;;;;;5033223;28;20112;-76
2021/09/04 10:25:40;;;;;;;4.13;1.60;;;26.80;44.40;;;;;;5033948;28;20039;-75
2021/09/04 10:28:06;;;;;;;3.45;1.60;;;27.20;44.50;;;;;;5033990;28;20029;-74
2021/09/04 10:30:38;;;;;;;5.68;1.63;;;27.40;43.90;;;;;;5033617;28;20557;-74
2021/09/04 10:33:10;;;;;;;4.38;2.15;;;26.80;43.30;;;;;;5033519;28;20022;-74
2021/09/04 10:35:56;;;;;;;2.75;1.70;;;26.30;44.40;;;;;;5033755;28;20579;-74
2021/09/04 10:38:28;;;;;;;4.30;1.90;;;26.50;44.50;;;;;;5034284;28;20034;-74
2021/09/04 10:41:15;;;;;;;3.33;1.63;;;26.60;44.20;;;;;;5033442;28;20124;-74
2021/09/04 10:43:46;;;;;;;3.30;1.65;;;26.30;43.60;;;;;;5034667;28;20467;-74
2021/09/04 10:46:15;;;;;;;2.22;1.30;;;25.60;44.30;;;;;;5034575;28;20379;-74
2021/09/04 10:48:41;;;;;;;2.70;1.38;;;25.70;44.40;;;;;;5033475;28;20030;-74
2021/09/04 10:51:10;;;;;;;3.47;1.85;;;26.10;44.70;;;;;;5033471;28;20051;-74
2021/09/04 10:53:43;;;;;;;3.70;1.40;;;26.80;44.50;;;;;;5033400;28;20041;-74
2021/09/04 10:56:18;;;;;;;2.22;1.20;;;27.40;43.10;;;;;;5034693;28;20034;-74
2021/09/04 10:58:44;;;;;;;3.53;1.20;;;27.50;41.70;;;;;;5033372;28;20099;-75
2021/09/04 11:01:15;;;;;;;1.65;1.02;;;27.70;41.50;;;;;;5033761;28;20040;-74
2021/09/04 11:03:41;;;;;;;2.15;1.30;;;28.00;41.60;;;;;;5033327;28;20048;-74
2021/09/04 11:06:08;;;;;;;5.03;1.58;;;28.30;40.70;;;;;;4994451;28;1138124;-71
2021/09/04 11:08:33;;;;;;;3.50;2.42;;;28.10;39.90;;;;;;5035360;28;20472;-73
2021/09/04 11:11:32;;;;;;;2.53;1.40;;;27.80;39.70;;;;;;5035224;28;20022;-74
2021/09/04 11:13:59;;;;;;;7.35;1.60;;;27.80;40.20;;;;;;5035340;28;20029;-74
2021/09/04 11:16:42;;;;;;;4.10;1.30;;;27.90;41.10;;;;;;5033949;28;20036;-74
2021/09/04 11:19:13;;;;;;;3.00;1.35;;;27.90;40.40;;;;;;5033867;28;20021;-74
2021/09/04 11:21:55;;;;;;;3.72;1.35;;;28.00;40.10;;;;;;5033717;28;20072;-72
2021/09/04 11:24:25;;;;;;;2.67;1.33;;;27.90;40.00;;;;;;5035585;28;20040;-73
2021/09/04 11:26:58;;;;;;;2.20;1.40;;;28.00;39.80;;;;;;5035230;28;20030;-72
2021/09/04 11:29:25;;;;;;;4.45;1.40;;;28.30;40.40;;;;;;5033293;28;20035;-74
2021/09/04 11:31:56;;;;;;;3.42;1.38;;;28.70;40.20;;;;;;5035176;28;20030;-73
2021/09/04 11:34:51;;;;;;;2.30;1.40;;;29.00;39.60;;;;;;5033431;28;20069;-73
2021/09/04 11:37:33;;;;;;;1.73;1.10;;;28.90;38.90;;;;;;5033709;28;20033;-74
2021/09/04 11:40:16;;;;;;;2.42;1.33;;;28.50;38.80;;;;;;5034937;28;20030;-72
2021/09/04 11:42:47;;;;;;;2.70;1.40;;;28.30;39.00;;;;;;5034829;28;20026;-72
2021/09/04 11:45:19;;;;;;;2.47;1.20;;;28.30;39.10;;;;;;5034852;28;20033;-73
2021/09/04 11:47:47;;;;;;;2.95;1.23;;;28.50;39.00;;;;;;5033381;28;20033;-72
2021/09/04 11:50:32;;;;;;;3.58;1.00;;;28.50;38.60;;;;;;5033459;28;20120;-72
2021/09/04 11:53:11;;;;;;;5.25;1.30;;;27.80;38.50;;;;;;5033342;28;20112;-73
2021/09/04 11:55:38;;;;;;;3.00;1.10;;;27.10;38.80;;;;;;5033637;28;20076;-72
2021/09/04 11:58:10;;;;;;;4.10;1.27;;;26.40;39.50;;;;;;5034430;28;20423;-72
2021/09/04 12:00:37;;;;;;;2.92;1.30;;;26.10;40.00;;;;;;5032453;28;20121;-72
2021/09/04 12:03:08;;;;;;;2.85;1.20;;;25.50;39.70;;;;;;5034100;28;20036;-72
2021/09/04 12:05:36;;;;;;;3.00;1.10;;;25.10;39.80;;;;;;5033968;28;20407;-71
2021/09/04 12:08:05;;;;;;;2.17;1.23;;;24.50;40.80;;;;;;5034229;28;20468;-71
2021/09/04 12:10:33;;;;;;;3.25;1.35;;;24.10;41.30;;;;;;5033089;28;20353;-71
2021/09/04 12:13:02;;;;;;;2.97;1.15;;;23.50;42.10;;;;;;5033075;28;20026;-73
2021/09/04 12:15:29;;;;;;;5.38;1.50;;;23.20;43.30;;;;;;5032877;28;20029;-74
2021/09/04 12:17:56;;;;;;;5.07;1.65;;;22.70;44.40;;;;;;5033947;28;20075;-71
2021/09/04 12:20:33;;;;;;;3.22;1.60;;;22.20;45.80;;;;;;5034123;28;20167;-71
2021/09/04 12:23:11;;;;;;;4.15;1.33;;;21.70;47.00;;;;;;5032930;28;20120;-71
2021/09/04 12:25:36;;;;;;;3.25;1.38;;;21.40;47.80;;;;;;5034110;28;20155;-71
2021/09/04 12:28:07;;;;;;;4.10;1.50;;;21.20;48.00;;;;;;5033583;28;20076;-73
2021/09/04 12:30:53;;;;;;;2.88;1.25;;;21.00;48.30;;;;;;5031693;28;20022;-71
2021/09/04 12:33:19;;;;;;;2.42;1.40;;;20.80;47.80;;;;;;5032939;28;20407;-71
2021/09/04 12:36:01;;;;;;;5.18;1.35;;;20.80;47.20;;;;;;5033234;28;20028;-72
2021/09/04 12:38:29;;;;;;;2.42;1.30;;;21.00;46.50;;;;;;5032705;28;20391;-71